sensor_id;sensor_type;location;lat;lon;timestamp;P1;durP1;ratioP1;P2;durP2;ratioP2
4694;SDS011;2361;49.540;8.390;2023-04-15T00:01:38;4.13;;;2.83;;
4694;SDS011;2361;49.540;8.390;2023-04-15T00:04:05;2.00;;;1.90;;
4694;SDS011;2361;49.540;8.390;2023-04-15T00:06:32;2.10;;;2.00;;
4694;SDS011;2361;49.540;8.390;2023-04-15T00:08:59;2.87;;;2.57;;
4694;SDS011;2361;49.540;8.390;2023-04-15T00:11:26;2.23;;;2.03;;
4694;SDS011;2361;49.540;8.390;2023-04-15T00:13:53;2.50;;;2.33;;
4694;SDS011;2361;49.540;8.390;2023-04-15T00:16:20;4.30;;;3.20;;
4694;SDS011;2361;49.540;8.390;2023-04-15T00:18:47;3.53;;;3.23;;
4694;SDS011;2361;49.540;8.390;2023-04-15T00:21:14;8.50;;;3.27;;
4694;SDS011;2361;49.540;8.390;2023-04-15T00:23:41;3.43;;;3.10;;
4694;SDS011;2361;49.540;8.390;2023-04-15T00:26:08;2.50;;;2.23;;
4694;SDS011;2361;49.540;8.390;2023-04-15T00:28:35;3.23;;;2.80;;
4694;SDS011;2361;49.540;8.390;2023-04-15T00:31:01;2.00;;;1.90;;
4694;SDS011;2361;49.540;8.390;2023-04-15T00:33:29;3.30;;;1.70;;
4694;SDS011;2361;49.540;8.390;2023-04-15T00:35:57;2.47;;;2.20;;
4694;SDS011;2361;49.540;8.390;2023-04-15T00:38:24;3.93;;;2.43;;
4694;SDS011;2361;49.540;8.390;2023-04-15T00:40:51;3.00;;;2.40;;
4694;SDS011;2361;49.540;8.390;2023-04-15T00:43:18;3.20;;;2.63;;
4694;SDS011;2361;49.540;8.390;2023-04-15T00:45:45;2.90;;;2.47;;
4694;SDS011;2361;49.540;8.390;2023-04-15T00:48:12;5.47;;;3.40;;
4694;SDS011;2361;49.540;8.390;2023-04-15T00:50:39;2.90;;;2.67;;
4694;SDS011;2361;49.540;8.390;2023-04-15T00:53:06;2.63;;;2.40;;
4694;SDS011;2361;49.540;8.390;2023-04-15T00:55:33;2.23;;;2.13;;
4694;SDS011;2361;49.540;8.390;2023-04-15T00:58:01;2.83;;;2.60;;
4694;SDS011;2361;49.540;8.390;2023-04-15T01:00:28;4.80;;;3.00;;
4694;SDS011;2361;49.540;8.390;2023-04-15T01:02:56;3.93;;;3.13;;
4694;SDS011;2361;49.540;8.390;2023-04-15T01:05:23;3.97;;;2.63;;
4694;SDS011;2361;49.540;8.390;2023-04-15T01:07:50;5.77;;;2.60;;
4694;SDS011;2361;49.540;8.390;2023-04-15T01:10:17;3.93;;;2.10;;
4694;SDS011;2361;49.540;8.390;2023-04-15T01:12:44;2.67;;;2.47;;
4694;SDS011;2361;49.540;8.390;2023-04-15T01:15:11;2.33;;;2.17;;
4694;SDS011;2361;49.540;8.390;2023-04-15T01:17:38;1.73;;;1.63;;
4694;SDS011;2361;49.540;8.390;2023-04-15T01:20:05;4.90;;;3.37;;
4694;SDS011;2361;49.540;8.390;2023-04-15T01:22:35;3.57;;;3.10;;
4694;SDS011;2361;49.540;8.390;2023-04-15T01:25:10;2.53;;;2.37;;
4694;SDS011;2361;49.540;8.390;2023-04-15T01:27:44;2.60;;;2.40;;
4694;SDS011;2361;49.540;8.390;2023-04-15T01:30:11;3.00;;;2.47;;
4694;SDS011;2361;49.540;8.390;2023-04-15T01:32:38;4.07;;;3.50;;
4694;SDS011;2361;49.540;8.390;2023-04-15T01:35:05;3.30;;;3.00;;
4694;SDS011;2361;49.540;8.390;2023-04-15T01:37:32;1.53;;;1.40;;
4694;SDS011;2361;49.540;8.390;2023-04-15T01:39:59;2.13;;;1.90;;
4694;SDS011;2361;49.540;8.390;2023-04-15T01:42:26;3.93;;;3.60;;
4694;SDS011;2361;49.540;8.390;2023-04-15T01:44:53;2.80;;;2.33;;
4694;SDS011;2361;49.540;8.390;2023-04-15T01:47:20;1.70;;;1.50;;
4694;SDS011;2361;49.540;8.390;2023-04-15T01:49:47;2.20;;;2.10;;
4694;SDS011;2361;49.540;8.390;2023-04-15T01:52:19;2.77;;;2.47;;
4694;SDS011;2361;49.540;8.390;2023-04-15T01:54:49;2.80;;;2.60;;
4694;SDS011;2361;49.540;8.390;2023-04-15T01:57:16;4.13;;;3.10;;
4694;SDS011;2361;49.540;8.390;2023-04-15T01:59:43;6.20;;;2.63;;
4694;SDS011;2361;49.540;8.390;2023-04-15T02:02:10;3.50;;;2.83;;
4694;SDS011;2361;49.540;8.390;2023-04-15T02:04:37;2.60;;;2.40;;
4694;SDS011;2361;49.540;8.390;2023-04-15T02:07:04;2.10;;;2.00;;
4694;SDS011;2361;49.540;8.390;2023-04-15T02:09:32;2.23;;;2.03;;
4694;SDS011;2361;49.540;8.390;2023-04-15T02:11:59;3.10;;;2.73;;
4694;SDS011;2361;49.540;8.390;2023-04-15T02:14:26;2.90;;;2.50;;
4694;SDS011;2361;49.540;8.390;2023-04-15T02:16:53;3.27;;;2.97;;
4694;SDS011;2361;49.540;8.390;2023-04-15T02:19:20;2.90;;;2.60;;
4694;SDS011;2361;49.540;8.390;2023-04-15T02:21:47;2.73;;;2.53;;
4694;SDS011;2361;49.540;8.390;2023-04-15T02:24:14;2.87;;;2.67;;
4694;SDS011;2361;49.540;8.390;2023-04-15T02:26:41;2.80;;;2.60;;
4694;SDS011;2361;49.540;8.390;2023-04-15T02:29:08;7.27;;;3.07;;
4694;SDS011;2361;49.540;8.390;2023-04-15T02:31:35;2.60;;;2.40;;
4694;SDS011;2361;49.540;8.390;2023-04-15T02:34:05;1.77;;;1.63;;
4694;SDS011;2361;49.540;8.390;2023-04-15T02:36:33;2.73;;;2.40;;
4694;SDS011;2361;49.540;8.390;2023-04-15T02:39:00;3.20;;;2.60;;
4694;SDS011;2361;49.540;8.390;2023-04-15T02:41:28;2.30;;;2.10;;
4694;SDS011;2361;49.540;8.390;2023-04-15T02:43:55;2.57;;;1.53;;
4694;SDS011;2361;49.540;8.390;2023-04-15T02:46:22;1.90;;;1.80;;
4694;SDS011;2361;49.540;8.390;2023-04-15T02:48:49;2.10;;;2.00;;
4694;SDS011;2361;49.540;8.390;2023-04-15T02:51:17;2.47;;;2.30;;
4694;SDS011;2361;49.540;8.390;2023-04-15T02:53:46;3.90;;;2.30;;
4694;SDS011;2361;49.540;8.390;2023-04-15T02:56:14;3.27;;;1.93;;
4694;SDS011;2361;49.540;8.390;2023-04-15T02:58:42;3.57;;;1.77;;
4694;SDS011;2361;49.540;8.390;2023-04-15T03:01:10;3.10;;;2.23;;
4694;SDS011;2361;49.540;8.390;2023-04-15T03:03:37;2.57;;;2.37;;
4694;SDS011;2361;49.540;8.390;2023-04-15T03:06:05;7.40;;;4.07;;
4694;SDS011;2361;49.540;8.390;2023-04-15T03:08:32;5.77;;;2.63;;
4694;SDS011;2361;49.540;8.390;2023-04-15T03:10:59;2.50;;;2.30;;
4694;SDS011;2361;49.540;8.390;2023-04-15T03:13:27;2.00;;;1.90;;
4694;SDS011;2361;49.540;8.390;2023-04-15T03:15:54;2.00;;;1.90;;
4694;SDS011;2361;49.540;8.390;2023-04-15T03:18:21;2.33;;;2.00;;
4694;SDS011;2361;49.540;8.390;2023-04-15T03:20:48;6.57;;;1.80;;
4694;SDS011;2361;49.540;8.390;2023-04-15T03:23:15;2.07;;;1.90;;
4694;SDS011;2361;49.540;8.390;2023-04-15T03:25:43;1.80;;;1.70;;
4694;SDS011;2361;49.540;8.390;2023-04-15T03:28:10;1.90;;;1.70;;
4694;SDS011;2361;49.540;8.390;2023-04-15T03:30:37;2.03;;;1.93;;
4694;SDS011;2361;49.540;8.390;2023-04-15T03:33:04;2.27;;;2.17;;
4694;SDS011;2361;49.540;8.390;2023-04-15T03:35:32;2.10;;;1.70;;
4694;SDS011;2361;49.540;8.390;2023-04-15T03:37:59;2.00;;;1.90;;
4694;SDS011;2361;49.540;8.390;2023-04-15T03:40:26;1.87;;;1.77;;
4694;SDS011;2361;49.540;8.390;2023-04-15T03:42:53;1.90;;;1.80;;
4694;SDS011;2361;49.540;8.390;2023-04-15T03:45:20;5.40;;;2.47;;
4694;SDS011;2361;49.540;8.390;2023-04-15T03:47:46;3.13;;;2.53;;
4694;SDS011;2361;49.540;8.390;2023-04-15T03:50:14;5.43;;;2.60;;
4694;SDS011;2361;49.540;8.390;2023-04-15T03:52:41;3.00;;;2.40;;
4694;SDS011;2361;49.540;8.390;2023-04-15T03:55:09;3.23;;;2.20;;
4694;SDS011;2361;49.540;8.390;2023-04-15T03:57:36;4.27;;;2.50;;
4694;SDS011;2361;49.540;8.390;2023-04-15T04:00:04;3.93;;;2.53;;
4694;SDS011;2361;49.540;8.390;2023-04-15T04:02:33;2.63;;;2.53;;
4694;SDS011;2361;49.540;8.390;2023-04-15T04:05:00;2.83;;;2.37;;
4694;SDS011;2361;49.540;8.390;2023-04-15T04:07:27;3.20;;;2.90;;
4694;SDS011;2361;49.540;8.390;2023-04-15T04:09:58;5.67;;;3.50;;
4694;SDS011;2361;49.540;8.390;2023-04-15T04:12:24;6.20;;;3.00;;
4694;SDS011;2361;49.540;8.390;2023-04-15T04:14:51;3.53;;;3.00;;
4694;SDS011;2361;49.540;8.390;2023-04-15T04:17:18;9.20;;;3.17;;
4694;SDS011;2361;49.540;8.390;2023-04-15T04:19:45;2.90;;;2.63;;
4694;SDS011;2361;49.540;8.390;2023-04-15T04:22:12;2.95;;;2.70;;
4694;SDS011;2361;49.540;8.390;2023-04-15T04:24:39;2.80;;;2.13;;
4694;SDS011;2361;49.540;8.390;2023-04-15T04:27:06;2.20;;;2.10;;
4694;SDS011;2361;49.540;8.390;2023-04-15T04:29:34;2.30;;;1.70;;
4694;SDS011;2361;49.540;8.390;2023-04-15T04:32:01;2.53;;;2.10;;
4694;SDS011;2361;49.540;8.390;2023-04-15T04:34:28;2.35;;;1.58;;
4694;SDS011;2361;49.540;8.390;2023-04-15T04:36:55;2.33;;;2.13;;
4694;SDS011;2361;49.540;8.390;2023-04-15T04:39:22;2.67;;;1.90;;
4694;SDS011;2361;49.540;8.390;2023-04-15T04:41:49;2.90;;;2.58;;
4694;SDS011;2361;49.540;8.390;2023-04-15T04:44:17;2.15;;;2.00;;
4694;SDS011;2361;49.540;8.390;2023-04-15T04:46:44;3.17;;;2.40;;
4694;SDS011;2361;49.540;8.390;2023-04-15T04:49:11;2.00;;;1.90;;
4694;SDS011;2361;49.540;8.390;2023-04-15T04:51:38;2.37;;;2.17;;
4694;SDS011;2361;49.540;8.390;2023-04-15T04:54:05;2.67;;;1.65;;
4694;SDS011;2361;49.540;8.390;2023-04-15T04:56:32;2.60;;;2.40;;
4694;SDS011;2361;49.540;8.390;2023-04-15T04:58:59;3.37;;;2.10;;
4694;SDS011;2361;49.540;8.390;2023-04-15T05:01:27;2.20;;;2.00;;
4694;SDS011;2361;49.540;8.390;2023-04-15T05:03:54;3.37;;;2.37;;
4694;SDS011;2361;49.540;8.390;2023-04-15T05:06:21;2.33;;;1.95;;
4694;SDS011;2361;49.540;8.390;2023-04-15T05:08:48;4.20;;;2.60;;
4694;SDS011;2361;49.540;8.390;2023-04-15T05:11:15;3.80;;;3.30;;
4694;SDS011;2361;49.540;8.390;2023-04-15T05:13:42;4.50;;;4.07;;
4694;SDS011;2361;49.540;8.390;2023-04-15T05:16:09;3.77;;;3.13;;
4694;SDS011;2361;49.540;8.390;2023-04-15T05:18:36;5.80;;;3.53;;
4694;SDS011;2361;49.540;8.390;2023-04-15T05:21:03;3.35;;;2.95;;
4694;SDS011;2361;49.540;8.390;2023-04-15T05:23:30;5.68;;;3.30;;
4694;SDS011;2361;49.540;8.390;2023-04-15T05:25:57;2.47;;;2.28;;
4694;SDS011;2361;49.540;8.390;2023-04-15T05:28:24;2.93;;;2.33;;
4694;SDS011;2361;49.540;8.390;2023-04-15T05:30:52;1.85;;;1.75;;
4694;SDS011;2361;49.540;8.390;2023-04-15T05:33:19;2.83;;;2.63;;
4694;SDS011;2361;49.540;8.390;2023-04-15T05:35:46;2.67;;;2.47;;
4694;SDS011;2361;49.540;8.390;2023-04-15T05:38:13;2.00;;;1.90;;
4694;SDS011;2361;49.540;8.390;2023-04-15T05:40:40;2.43;;;2.23;;
4694;SDS011;2361;49.540;8.390;2023-04-15T05:43:07;2.53;;;2.33;;
4694;SDS011;2361;49.540;8.390;2023-04-15T05:45:34;2.50;;;2.30;;
4694;SDS011;2361;49.540;8.390;2023-04-15T05:48:01;3.10;;;2.80;;
4694;SDS011;2361;49.540;8.390;2023-04-15T05:50:28;3.53;;;2.60;;
4694;SDS011;2361;49.540;8.390;2023-04-15T05:52:55;3.43;;;2.90;;
4694;SDS011;2361;49.540;8.390;2023-04-15T05:55:22;2.27;;;2.17;;
4694;SDS011;2361;49.540;8.390;2023-04-15T05:57:49;2.93;;;2.73;;
4694;SDS011;2361;49.540;8.390;2023-04-15T06:00:16;7.90;;;3.10;;
4694;SDS011;2361;49.540;8.390;2023-04-15T06:02:43;3.43;;;2.33;;
4694;SDS011;2361;49.540;8.390;2023-04-15T06:05:10;3.10;;;2.83;;
4694;SDS011;2361;49.540;8.390;2023-04-15T06:07:38;2.53;;;2.33;;
4694;SDS011;2361;49.540;8.390;2023-04-15T06:10:06;3.27;;;2.97;;
4694;SDS011;2361;49.540;8.390;2023-04-15T06:12:33;5.80;;;3.40;;
4694;SDS011;2361;49.540;8.390;2023-04-15T06:15:01;4.20;;;2.87;;
4694;SDS011;2361;49.540;8.390;2023-04-15T06:17:29;3.00;;;2.70;;
4694;SDS011;2361;49.540;8.390;2023-04-15T06:19:56;3.43;;;3.13;;
4694;SDS011;2361;49.540;8.390;2023-04-15T06:22:23;4.10;;;3.17;;
4694;SDS011;2361;49.540;8.390;2023-04-15T06:24:50;3.03;;;2.70;;
4694;SDS011;2361;49.540;8.390;2023-04-15T06:27:17;3.37;;;3.07;;
4694;SDS011;2361;49.540;8.390;2023-04-15T06:29:44;3.17;;;2.90;;
4694;SDS011;2361;49.540;8.390;2023-04-15T06:32:11;4.40;;;3.80;;
4694;SDS011;2361;49.540;8.390;2023-04-15T06:34:38;6.90;;;3.13;;
4694;SDS011;2361;49.540;8.390;2023-04-15T06:37:05;6.90;;;3.57;;
4694;SDS011;2361;49.540;8.390;2023-04-15T06:39:33;3.37;;;3.07;;
4694;SDS011;2361;49.540;8.390;2023-04-15T06:41:59;5.03;;;3.17;;
4694;SDS011;2361;49.540;8.390;2023-04-15T06:44:26;3.30;;;2.97;;
4694;SDS011;2361;49.540;8.390;2023-04-15T06:46:54;5.80;;;3.90;;
4694;SDS011;2361;49.540;8.390;2023-04-15T06:49:21;6.37;;;4.13;;
4694;SDS011;2361;49.540;8.390;2023-04-15T06:51:48;4.03;;;3.70;;
4694;SDS011;2361;49.540;8.390;2023-04-15T06:54:16;5.73;;;4.37;;
4694;SDS011;2361;49.540;8.390;2023-04-15T06:56:43;6.23;;;4.77;;
4694;SDS011;2361;49.540;8.390;2023-04-15T06:59:10;5.33;;;4.80;;
4694;SDS011;2361;49.540;8.390;2023-04-15T07:01:38;5.63;;;4.97;;
4694;SDS011;2361;49.540;8.390;2023-04-15T07:04:08;4.27;;;3.87;;
4694;SDS011;2361;49.540;8.390;2023-04-15T07:06:35;4.13;;;3.80;;
4694;SDS011;2361;49.540;8.390;2023-04-15T07:09:02;4.97;;;4.57;;
4694;SDS011;2361;49.540;8.390;2023-04-15T07:11:30;5.37;;;4.87;;
4694;SDS011;2361;49.540;8.390;2023-04-15T07:13:57;5.50;;;4.50;;
4694;SDS011;2361;49.540;8.390;2023-04-15T07:16:24;5.07;;;4.53;;
4694;SDS011;2361;49.540;8.390;2023-04-15T07:18:53;7.70;;;4.37;;
4694;SDS011;2361;49.540;8.390;2023-04-15T07:21:21;4.40;;;4.00;;
4694;SDS011;2361;49.540;8.390;2023-04-15T07:23:49;5.63;;;3.77;;
4694;SDS011;2361;49.540;8.390;2023-04-15T07:26:16;5.50;;;5.00;;
4694;SDS011;2361;49.540;8.390;2023-04-15T07:28:43;4.30;;;3.90;;
4694;SDS011;2361;49.540;8.390;2023-04-15T07:31:11;6.37;;;4.63;;
4694;SDS011;2361;49.540;8.390;2023-04-15T07:33:39;4.90;;;3.60;;
4694;SDS011;2361;49.540;8.390;2023-04-15T07:36:06;4.40;;;3.50;;
4694;SDS011;2361;49.540;8.390;2023-04-15T07:38:33;3.97;;;3.67;;
4694;SDS011;2361;49.540;8.390;2023-04-15T07:41:00;6.33;;;4.43;;
4694;SDS011;2361;49.540;8.390;2023-04-15T07:43:27;7.37;;;4.50;;
4694;SDS011;2361;49.540;8.390;2023-04-15T07:45:54;5.97;;;4.53;;
4694;SDS011;2361;49.540;8.390;2023-04-15T07:48:21;4.90;;;4.20;;
4694;SDS011;2361;49.540;8.390;2023-04-15T07:50:48;5.57;;;4.13;;
4694;SDS011;2361;49.540;8.390;2023-04-15T07:53:15;5.40;;;4.90;;
4694;SDS011;2361;49.540;8.390;2023-04-15T07:55:42;4.87;;;4.30;;
4694;SDS011;2361;49.540;8.390;2023-04-15T07:58:09;3.70;;;3.40;;
4694;SDS011;2361;49.540;8.390;2023-04-15T08:00:36;5.33;;;4.80;;
4694;SDS011;2361;49.540;8.390;2023-04-15T08:03:03;5.90;;;4.80;;
4694;SDS011;2361;49.540;8.390;2023-04-15T08:05:31;5.80;;;5.20;;
4694;SDS011;2361;49.540;8.390;2023-04-15T08:07:58;6.90;;;5.63;;
4694;SDS011;2361;49.540;8.390;2023-04-15T08:10:25;7.47;;;4.50;;
4694;SDS011;2361;49.540;8.390;2023-04-15T08:12:53;5.10;;;4.60;;
4694;SDS011;2361;49.540;8.390;2023-04-15T08:15:20;5.60;;;4.47;;
4694;SDS011;2361;49.540;8.390;2023-04-15T08:17:47;5.97;;;4.60;;
4694;SDS011;2361;49.540;8.390;2023-04-15T08:20:14;5.80;;;4.73;;
4694;SDS011;2361;49.540;8.390;2023-04-15T08:22:41;5.10;;;4.60;;
4694;SDS011;2361;49.540;8.390;2023-04-15T08:25:09;5.60;;;4.70;;
4694;SDS011;2361;49.540;8.390;2023-04-15T08:27:36;5.47;;;4.97;;
4694;SDS011;2361;49.540;8.390;2023-04-15T08:30:03;6.10;;;5.23;;
4694;SDS011;2361;49.540;8.390;2023-04-15T08:32:31;5.50;;;4.90;;
4694;SDS011;2361;49.540;8.390;2023-04-15T08:34:58;6.43;;;5.03;;
4694;SDS011;2361;49.540;8.390;2023-04-15T08:37:25;4.73;;;4.30;;
4694;SDS011;2361;49.540;8.390;2023-04-15T08:39:52;5.20;;;4.70;;
4694;SDS011;2361;49.540;8.390;2023-04-15T08:42:22;6.57;;;4.33;;
4694;SDS011;2361;49.540;8.390;2023-04-15T08:45:03;5.50;;;4.97;;
4694;SDS011;2361;49.540;8.390;2023-04-15T08:47:30;6.50;;;4.33;;
4694;SDS011;2361;49.540;8.390;2023-04-15T08:49:59;4.27;;;3.97;;
4694;SDS011;2361;49.540;8.390;2023-04-15T08:52:30;5.27;;;4.43;;
4694;SDS011;2361;49.540;8.390;2023-04-15T08:54:57;5.33;;;4.60;;
4694;SDS011;2361;49.540;8.390;2023-04-15T08:57:27;4.77;;;4.27;;
4694;SDS011;2361;49.540;8.390;2023-04-15T08:59:55;4.07;;;3.77;;
4694;SDS011;2361;49.540;8.390;2023-04-15T09:02:23;4.37;;;3.97;;
4694;SDS011;2361;49.540;8.390;2023-04-15T09:04:53;3.63;;;3.30;;
4694;SDS011;2361;49.540;8.390;2023-04-15T09:07:21;4.30;;;3.90;;
4694;SDS011;2361;49.540;8.390;2023-04-15T09:09:48;6.53;;;5.33;;
4694;SDS011;2361;49.540;8.390;2023-04-15T09:12:16;7.90;;;5.23;;
4694;SDS011;2361;49.540;8.390;2023-04-15T09:14:44;5.40;;;4.90;;
4694;SDS011;2361;49.540;8.390;2023-04-15T09:17:13;3.50;;;3.20;;
4694;SDS011;2361;49.540;8.390;2023-04-15T09:19:46;4.33;;;4.00;;
4694;SDS011;2361;49.540;8.390;2023-04-15T09:22:13;5.23;;;4.73;;
4694;SDS011;2361;49.540;8.390;2023-04-15T09:24:40;5.10;;;4.60;;
4694;SDS011;2361;49.540;8.390;2023-04-15T09:27:08;6.00;;;4.60;;
4694;SDS011;2361;49.540;8.390;2023-04-15T09:29:36;5.20;;;4.70;;
4694;SDS011;2361;49.540;8.390;2023-04-15T09:32:10;6.23;;;5.57;;
4694;SDS011;2361;49.540;8.390;2023-04-15T09:34:38;6.20;;;5.60;;
4694;SDS011;2361;49.540;8.390;2023-04-15T09:37:05;5.17;;;4.77;;
4694;SDS011;2361;49.540;8.390;2023-04-15T09:42:16;30.07;;;17.63;;
4694;SDS011;2361;49.540;8.390;2023-04-15T09:44:50;6.80;;;6.20;;
4694;SDS011;2361;49.540;8.390;2023-04-15T09:47:28;6.10;;;5.13;;
4694;SDS011;2361;49.540;8.390;2023-04-15T09:49:57;5.00;;;4.50;;
4694;SDS011;2361;49.540;8.390;2023-04-15T09:52:25;5.93;;;5.43;;
4694;SDS011;2361;49.540;8.390;2023-04-15T09:54:54;8.10;;;6.03;;
4694;SDS011;2361;49.540;8.390;2023-04-15T09:57:23;9.53;;;5.90;;
4694;SDS011;2361;49.540;8.390;2023-04-15T09:59:50;6.70;;;6.10;;
4694;SDS011;2361;49.540;8.390;2023-04-15T10:02:18;7.70;;;6.67;;
4694;SDS011;2361;49.540;8.390;2023-04-15T10:04:48;9.80;;;6.83;;
4694;SDS011;2361;49.540;8.390;2023-04-15T10:07:16;6.57;;;5.10;;
4694;SDS011;2361;49.540;8.390;2023-04-15T10:09:47;7.20;;;6.50;;
4694;SDS011;2361;49.540;8.390;2023-04-15T10:12:16;7.70;;;6.47;;
4694;SDS011;2361;49.540;8.390;2023-04-15T10:14:44;5.53;;;4.40;;
4694;SDS011;2361;49.540;8.390;2023-04-15T10:17:20;5.30;;;4.90;;
4694;SDS011;2361;49.540;8.390;2023-04-15T10:19:48;6.20;;;5.17;;
4694;SDS011;2361;49.540;8.390;2023-04-15T10:22:21;8.93;;;6.67;;
4694;SDS011;2361;49.540;8.390;2023-04-15T10:24:48;7.33;;;6.20;;
4694;SDS011;2361;49.540;8.390;2023-04-15T10:27:16;3.10;;;2.80;;
4694;SDS011;2361;49.540;8.390;2023-04-15T10:29:44;7.63;;;5.27;;
4694;SDS011;2361;49.540;8.390;2023-04-15T10:32:11;6.60;;;6.03;;
4694;SDS011;2361;49.540;8.390;2023-04-15T10:34:39;6.13;;;5.47;;
4694;SDS011;2361;49.540;8.390;2023-04-15T10:37:08;5.10;;;3.40;;
4694;SDS011;2361;49.540;8.390;2023-04-15T10:39:37;6.13;;;5.50;;
4694;SDS011;2361;49.540;8.390;2023-04-15T10:42:11;5.83;;;4.30;;
4694;SDS011;2361;49.540;8.390;2023-04-15T10:44:45;7.50;;;5.47;;
4694;SDS011;2361;49.540;8.390;2023-04-15T10:47:19;6.30;;;4.50;;
4694;SDS011;2361;49.540;8.390;2023-04-15T10:49:48;8.30;;;5.40;;
4694;SDS011;2361;49.540;8.390;2023-04-15T10:52:21;5.33;;;4.83;;
4694;SDS011;2361;49.540;8.390;2023-04-15T10:55:00;7.20;;;5.33;;
4694;SDS011;2361;49.540;8.390;2023-04-15T10:57:39;6.47;;;4.60;;
4694;SDS011;2361;49.540;8.390;2023-04-15T11:02:47;6.43;;;5.30;;
4694;SDS011;2361;49.540;8.390;2023-04-15T11:05:17;5.60;;;5.03;;
4694;SDS011;2361;49.540;8.390;2023-04-15T11:10:49;4.30;;;3.90;;
4694;SDS011;2361;49.540;8.390;2023-04-15T11:15:41;3.97;;;3.60;;
4694;SDS011;2361;49.540;8.390;2023-04-15T11:18:14;4.43;;;4.13;;
4694;SDS011;2361;49.540;8.390;2023-04-15T11:20:48;5.07;;;4.67;;
4694;SDS011;2361;49.540;8.390;2023-04-15T11:26:05;4.40;;;4.10;;
4694;SDS011;2361;49.540;8.390;2023-04-15T11:28:35;4.70;;;4.17;;
4694;SDS011;2361;49.540;8.390;2023-04-15T11:31:04;4.43;;;3.70;;
4694;SDS011;2361;49.540;8.390;2023-04-15T11:33:35;5.17;;;3.80;;
4694;SDS011;2361;49.540;8.390;2023-04-15T11:36:03;4.03;;;3.63;;
4694;SDS011;2361;49.540;8.390;2023-04-15T11:38:31;4.07;;;2.80;;
4694;SDS011;2361;49.540;8.390;2023-04-15T11:40:59;2.07;;;1.93;;
4694;SDS011;2361;49.540;8.390;2023-04-15T11:43:26;3.63;;;3.30;;
4694;SDS011;2361;49.540;8.390;2023-04-15T11:45:58;3.23;;;3.03;;
4694;SDS011;2361;49.540;8.390;2023-04-15T11:48:27;5.47;;;3.40;;
4694;SDS011;2361;49.540;8.390;2023-04-15T11:51:03;4.50;;;3.50;;
4694;SDS011;2361;49.540;8.390;2023-04-15T11:53:50;3.10;;;2.73;;
4694;SDS011;2361;49.540;8.390;2023-04-15T11:56:21;3.77;;;2.87;;
4694;SDS011;2361;49.540;8.390;2023-04-15T11:58:56;3.27;;;2.90;;
4694;SDS011;2361;49.540;8.390;2023-04-15T12:01:31;3.03;;;2.83;;
4694;SDS011;2361;49.540;8.390;2023-04-15T12:04:11;3.37;;;2.93;;
4694;SDS011;2361;49.540;8.390;2023-04-15T12:06:40;2.70;;;2.60;;
4694;SDS011;2361;49.540;8.390;2023-04-15T12:09:11;3.23;;;2.20;;
4694;SDS011;2361;49.540;8.390;2023-04-15T12:11:46;2.43;;;2.23;;
4694;SDS011;2361;49.540;8.390;2023-04-15T12:16:50;2.23;;;2.10;;
4694;SDS011;2361;49.540;8.390;2023-04-15T12:19:30;2.77;;;2.57;;
4694;SDS011;2361;49.540;8.390;2023-04-15T12:22:09;5.50;;;2.37;;
4694;SDS011;2361;49.540;8.390;2023-04-15T12:24:38;2.10;;;1.90;;
4694;SDS011;2361;49.540;8.390;2023-04-15T12:27:06;1.67;;;1.20;;
4694;SDS011;2361;49.540;8.390;2023-04-15T12:29:36;1.00;;;1.00;;
4694;SDS011;2361;49.540;8.390;2023-04-15T12:34:37;1.00;;;1.00;;
4694;SDS011;2361;49.540;8.390;2023-04-15T12:37:10;1.07;;;0.90;;
4694;SDS011;2361;49.540;8.390;2023-04-15T12:39:40;1.23;;;1.00;;
4694;SDS011;2361;49.540;8.390;2023-04-15T12:42:09;1.83;;;1.10;;
4694;SDS011;2361;49.540;8.390;2023-04-15T12:44:37;1.37;;;0.80;;
4694;SDS011;2361;49.540;8.390;2023-04-15T12:47:05;1.00;;;1.00;;
4694;SDS011;2361;49.540;8.390;2023-04-15T12:49:33;1.13;;;1.00;;
4694;SDS011;2361;49.540;8.390;2023-04-15T12:52:01;0.83;;;0.80;;
4694;SDS011;2361;49.540;8.390;2023-04-15T12:54:29;0.73;;;0.73;;
4694;SDS011;2361;49.540;8.390;2023-04-15T12:56:57;1.00;;;0.90;;
4694;SDS011;2361;49.540;8.390;2023-04-15T12:59:25;1.53;;;0.70;;
4694;SDS011;2361;49.540;8.390;2023-04-15T13:01:52;0.70;;;0.70;;
4694;SDS011;2361;49.540;8.390;2023-04-15T13:04:19;0.77;;;0.60;;
4694;SDS011;2361;49.540;8.390;2023-04-15T13:06:47;0.60;;;0.60;;
4694;SDS011;2361;49.540;8.390;2023-04-15T13:09:14;0.60;;;0.60;;
4694;SDS011;2361;49.540;8.390;2023-04-15T13:11:41;0.60;;;0.60;;
4694;SDS011;2361;49.540;8.390;2023-04-15T13:14:09;1.10;;;0.70;;
4694;SDS011;2361;49.540;8.390;2023-04-15T13:16:39;0.60;;;0.60;;
4694;SDS011;2361;49.540;8.390;2023-04-15T13:19:06;0.60;;;0.60;;
4694;SDS011;2361;49.540;8.390;2023-04-15T13:21:33;0.60;;;0.60;;
4694;SDS011;2361;49.540;8.390;2023-04-15T13:24:01;0.60;;;0.60;;
4694;SDS011;2361;49.540;8.390;2023-04-15T13:26:30;1.27;;;0.53;;
4694;SDS011;2361;49.540;8.390;2023-04-15T13:28:57;0.70;;;0.70;;
4694;SDS011;2361;49.540;8.390;2023-04-15T13:31:24;3.43;;;1.73;;
4694;SDS011;2361;49.540;8.390;2023-04-15T13:33:52;0.70;;;0.70;;
4694;SDS011;2361;49.540;8.390;2023-04-15T13:36:19;0.70;;;0.70;;
4694;SDS011;2361;49.540;8.390;2023-04-15T13:38:46;1.07;;;0.77;;
4694;SDS011;2361;49.540;8.390;2023-04-15T13:41:16;0.90;;;0.90;;
4694;SDS011;2361;49.540;8.390;2023-04-15T13:43:43;1.07;;;0.70;;
4694;SDS011;2361;49.540;8.390;2023-04-15T13:46:10;0.70;;;0.70;;
4694;SDS011;2361;49.540;8.390;2023-04-15T13:48:38;1.00;;;0.90;;
4694;SDS011;2361;49.540;8.390;2023-04-15T13:51:08;1.63;;;0.70;;
4694;SDS011;2361;49.540;8.390;2023-04-15T13:53:35;1.33;;;1.33;;
4694;SDS011;2361;49.540;8.390;2023-04-15T13:56:05;0.87;;;0.87;;
4694;SDS011;2361;49.540;8.390;2023-04-15T13:58:33;0.80;;;0.80;;
4694;SDS011;2361;49.540;8.390;2023-04-15T14:01:01;0.80;;;0.80;;
4694;SDS011;2361;49.540;8.390;2023-04-15T14:03:31;0.90;;;0.90;;
4694;SDS011;2361;49.540;8.390;2023-04-15T14:05:59;0.43;;;0.43;;
4694;SDS011;2361;49.540;8.390;2023-04-15T14:08:26;1.00;;;1.00;;
4694;SDS011;2361;49.540;8.390;2023-04-15T14:10:53;1.07;;;1.07;;
4694;SDS011;2361;49.540;8.390;2023-04-15T14:13:20;1.20;;;1.20;;
4694;SDS011;2361;49.540;8.390;2023-04-15T14:15:47;1.20;;;1.10;;
4694;SDS011;2361;49.540;8.390;2023-04-15T14:18:14;1.30;;;1.20;;
4694;SDS011;2361;49.540;8.390;2023-04-15T14:20:41;1.17;;;1.13;;
4694;SDS011;2361;49.540;8.390;2023-04-15T14:23:08;1.10;;;1.10;;
4694;SDS011;2361;49.540;8.390;2023-04-15T14:25:35;1.07;;;1.03;;
4694;SDS011;2361;49.540;8.390;2023-04-15T14:28:04;1.10;;;1.10;;
4694;SDS011;2361;49.540;8.390;2023-04-15T14:30:31;1.20;;;1.20;;
4694;SDS011;2361;49.540;8.390;2023-04-15T14:32:58;0.70;;;0.70;;
4694;SDS011;2361;49.540;8.390;2023-04-15T14:35:25;1.20;;;1.20;;
4694;SDS011;2361;49.540;8.390;2023-04-15T14:37:53;1.60;;;1.50;;
4694;SDS011;2361;49.540;8.390;2023-04-15T14:40:20;1.50;;;1.40;;
4694;SDS011;2361;49.540;8.390;2023-04-15T14:42:48;1.50;;;1.50;;
4694;SDS011;2361;49.540;8.390;2023-04-15T14:45:15;1.17;;;1.17;;
4694;SDS011;2361;49.540;8.390;2023-04-15T14:47:42;2.00;;;1.90;;
4694;SDS011;2361;49.540;8.390;2023-04-15T14:50:10;1.60;;;1.50;;
4694;SDS011;2361;49.540;8.390;2023-04-15T14:52:37;1.27;;;1.23;;
4694;SDS011;2361;49.540;8.390;2023-04-15T14:55:05;0.90;;;0.90;;
4694;SDS011;2361;49.540;8.390;2023-04-15T14:57:32;1.30;;;1.30;;
4694;SDS011;2361;49.540;8.390;2023-04-15T14:59:59;0.90;;;0.90;;
4694;SDS011;2361;49.540;8.390;2023-04-15T15:02:26;1.40;;;1.40;;
4694;SDS011;2361;49.540;8.390;2023-04-15T15:05:04;1.40;;;1.40;;
4694;SDS011;2361;49.540;8.390;2023-04-15T15:07:31;1.20;;;1.20;;
4694;SDS011;2361;49.540;8.390;2023-04-15T15:09:58;1.53;;;1.53;;
4694;SDS011;2361;49.540;8.390;2023-04-15T15:12:25;1.43;;;1.43;;
4694;SDS011;2361;49.540;8.390;2023-04-15T15:14:53;1.80;;;1.70;;
4694;SDS011;2361;49.540;8.390;2023-04-15T15:17:21;1.50;;;1.40;;
4694;SDS011;2361;49.540;8.390;2023-04-15T15:19:48;1.00;;;1.00;;
4694;SDS011;2361;49.540;8.390;2023-04-15T15:22:15;1.03;;;0.83;;
4694;SDS011;2361;49.540;8.390;2023-04-15T15:24:43;1.30;;;1.30;;
4694;SDS011;2361;49.540;8.390;2023-04-15T15:27:10;1.53;;;1.53;;
4694;SDS011;2361;49.540;8.390;2023-04-15T15:29:37;1.27;;;1.23;;
4694;SDS011;2361;49.540;8.390;2023-04-15T15:32:04;1.47;;;1.47;;
4694;SDS011;2361;49.540;8.390;2023-04-15T15:34:31;1.70;;;1.70;;
4694;SDS011;2361;49.540;8.390;2023-04-15T15:36:59;1.50;;;1.50;;
4694;SDS011;2361;49.540;8.390;2023-04-15T15:39:26;1.97;;;1.87;;